createdAt,value
2018-12-05T00:00:00.718Z,94308.53
2018-12-05T00:02:28.534Z,94312.75
2018-12-05T00:04:55.965Z,94313.17
2018-12-05T00:07:23.363Z,94311.05
2018-12-05T00:12:28.602Z,94294.59
2018-12-05T00:14:55.974Z,94296.27
2018-12-05T00:17:23.373Z,94289.51
2018-12-05T00:19:50.795Z,94300.51
2018-12-05T00:22:18.177Z,94298.38
2018-12-05T00:24:45.593Z,94303.03
2018-12-05T00:27:12.919Z,94299.66
2018-12-05T00:29:40.919Z,94297.52
2018-12-05T00:32:09.002Z,94296.69
2018-12-05T00:34:36.393Z,94307.24
2018-12-05T00:37:04.374Z,94307.26
2018-12-05T00:39:31.804Z,94304.30
2018-12-05T00:41:59.183Z,94308.95
2018-12-05T00:44:26.598Z,94308.12
2018-12-05T00:46:54.008Z,94296.25
2018-12-05T00:49:21.375Z,94302.18
2018-12-05T00:51:48.740Z,94303.89
2018-12-05T00:54:16.137Z,94307.69
2018-12-05T00:56:43.548Z,94298.39
2018-12-05T00:59:10.984Z,94297.11
2018-12-05T01:01:38.522Z,94291.21
2018-12-05T01:04:06.943Z,94295.84
2018-12-05T01:06:34.403Z,94303.89
2018-12-05T01:09:01.883Z,94303.47
2018-12-05T01:11:29.267Z,94296.27
2018-12-05T01:13:56.604Z,94289.52
2018-12-05T01:16:24.074Z,94303.05
2018-12-05T01:18:51.457Z,94300.08
2018-12-05T01:21:19.503Z,94305.98
2018-12-05T01:23:47.006Z,94300.91
2018-12-05T01:26:14.385Z,94310.21
2018-12-05T01:28:41.862Z,94311.48
2018-12-05T01:31:09.484Z,94314.86
2018-12-05T01:33:37.524Z,94311.05
2018-12-05T01:36:04.903Z,94305.98
2018-12-05T01:38:32.863Z,94311.07
2018-12-05T01:41:00.207Z,94315.31
2018-12-05T01:43:32.098Z,94323.33
2018-12-05T01:45:59.430Z,94326.30
2018-12-05T01:48:27.589Z,94324.17
2018-12-05T01:50:54.944Z,94320.80
2018-12-05T01:53:22.267Z,94314.45
2018-12-05T01:55:49.629Z,94300.91
2018-12-05T01:58:16.998Z,94300.08
2018-12-05T02:00:44.923Z,94300.08
2018-12-05T02:03:12.368Z,94302.59
2018-12-05T02:05:40.367Z,94300.93
2018-12-05T02:08:18.018Z,94294.58
2018-12-05T02:10:45.381Z,94289.07
2018-12-05T02:13:12.825Z,94284.44
2018-12-05T02:15:40.285Z,94270.91
2018-12-05T02:18:08.228Z,94277.67
2018-12-05T02:20:35.654Z,94267.94
2018-12-05T02:23:03.040Z,94280.22
2018-12-05T02:25:30.417Z,94280.20
2018-12-05T02:27:57.767Z,94286.56
2018-12-05T02:30:25.874Z,94282.77
2018-12-05T02:32:54.062Z,94278.95
2018-12-05T02:35:22.153Z,94269.22
2018-12-05T02:37:49.603Z,94268.37
2018-12-05T02:40:17.064Z,94268.37
2018-12-05T02:42:44.455Z,94278.53
2018-12-05T02:45:11.878Z,94285.28
2018-12-05T02:47:39.294Z,94289.07
2018-12-05T02:50:06.938Z,94282.75
2018-12-05T02:52:34.404Z,94286.55
2018-12-05T02:55:01.808Z,94282.75
2018-12-05T02:57:29.178Z,94278.10
2018-12-05T02:59:56.688Z,94285.68
2018-12-05T03:02:24.078Z,94268.36
2018-12-05T03:04:51.503Z,94265.83
2018-12-05T03:07:18.949Z,94259.88
2018-12-05T03:09:47.137Z,94255.23
2018-12-05T03:12:14.490Z,94241.69
2018-12-05T03:14:41.881Z,94242.09
2018-12-05T03:17:09.243Z,94237.88
2018-12-05T03:19:36.629Z,94243.80
2018-12-05T03:22:04.169Z,94250.56
2018-12-05T03:24:31.556Z,94250.16
2018-12-05T03:26:58.944Z,94252.70
2018-12-05T03:29:26.300Z,94245.94
2018-12-05T03:31:53.686Z,94252.72
2018-12-05T03:34:21.068Z,94256.11
2018-12-05T03:36:48.493Z,94258.66
2018-12-05T03:39:15.820Z,94269.65
2018-12-05T03:41:43.235Z,94269.23
2018-12-05T03:44:10.605Z,94274.30
2018-12-05T03:46:37.993Z,94284.00
2018-12-05T03:49:05.333Z,94283.57
2018-12-05T03:51:32.725Z,94280.64
2018-12-05T03:54:00.267Z,94279.77
2018-12-05T03:56:27.663Z,94293.32
2018-12-05T03:58:55.043Z,94295.43
2018-12-05T04:01:22.392Z,94298.79
2018-12-05T04:03:49.747Z,94300.50
2018-12-05T04:06:17.080Z,94296.69
2018-12-05T04:08:44.520Z,94299.24
2018-12-05T04:11:11.886Z,94297.98
2018-12-05T04:13:39.254Z,94299.66
2018-12-05T04:16:06.667Z,94282.30
2018-12-05T04:18:34.024Z,94280.20
2018-12-05T04:21:01.449Z,94288.64
2018-12-05T04:23:28.854Z,94281.91
2018-12-05T04:25:56.198Z,94270.48
2018-12-05T04:28:23.544Z,94267.53
2018-12-05T04:30:50.900Z,94260.78
2018-12-05T04:33:18.295Z,94250.61
2018-12-05T04:35:45.656Z,94246.38
2018-12-05T04:38:13.094Z,94248.09
2018-12-05T04:40:40.450Z,94253.17
2018-12-05T04:43:07.814Z,94256.97
2018-12-05T04:45:35.170Z,94275.55
2018-12-05T04:48:02.574Z,94270.48
2018-12-05T04:50:29.910Z,94272.59
2018-12-05T04:52:57.243Z,94270.06
2018-12-05T04:55:24.648Z,94273.85
2018-12-05T04:57:52.587Z,94275.14
2018-12-05T05:00:20.036Z,94275.12
2018-12-05T05:02:47.394Z,94270.06
2018-12-05T05:05:14.792Z,94271.31
2018-12-05T05:07:42.145Z,94276.80
2018-12-05T05:10:11.587Z,94270.45
2018-12-05T05:12:38.942Z,94258.21
2018-12-05T05:15:06.374Z,94262.41
2018-12-05T05:17:33.691Z,94261.56
2018-12-05T05:20:01.075Z,94260.70
2018-12-05T05:22:28.516Z,94268.73
2018-12-05T05:24:55.856Z,94263.25
2018-12-05T05:27:23.353Z,94259.86
2018-12-05T05:29:50.704Z,94254.78
2018-12-05T05:32:18.069Z,94255.64
2018-12-05T05:34:45.414Z,94258.59
2018-12-05T05:37:12.841Z,94259.03
2018-12-05T05:39:40.179Z,94258.98
2018-12-05T05:42:07.574Z,94259.88
2018-12-05T05:44:34.944Z,94272.55
2018-12-05T05:47:02.355Z,94286.08
2018-12-05T05:49:29.694Z,94293.27
2018-12-05T05:51:57.059Z,94294.55
2018-12-05T05:54:24.425Z,94290.33
2018-12-05T05:56:51.885Z,94296.23
2018-12-05T05:59:19.348Z,94295.38
2018-12-05T06:01:46.665Z,94283.13
2018-12-05T06:04:14.045Z,94280.56
2018-12-05T06:06:41.375Z,94278.47
2018-12-05T06:09:08.766Z,94280.98
2018-12-05T06:11:36.066Z,94285.20
2018-12-05T06:14:03.460Z,94284.77
2018-12-05T06:16:30.827Z,94285.63
2018-12-05T06:18:58.236Z,94283.13
2018-12-05T06:21:25.615Z,94281.44
2018-12-05T06:23:53.041Z,94288.19
2018-12-05T06:26:20.413Z,94297.48
2018-12-05T06:28:47.774Z,94288.18
2018-12-05T06:31:15.185Z,94293.25
2018-12-05T06:33:42.525Z,94292.83
2018-12-05T06:36:09.871Z,94292.00
2018-12-05T06:38:37.252Z,94295.81
2018-12-05T06:41:04.680Z,94295.79
2018-12-05T06:43:32.027Z,94294.97
2018-12-05T06:45:59.395Z,94297.89
2018-12-05T06:48:26.734Z,94292.42
2018-12-05T06:50:54.101Z,94296.64
2018-12-05T06:53:21.427Z,94290.73
2018-12-05T06:55:48.831Z,94291.98
2018-12-05T06:58:16.221Z,94288.17
2018-12-05T07:00:43.610Z,94291.98
2018-12-05T07:03:11.020Z,94303.86
2018-12-05T07:05:38.380Z,94303.45
2018-12-05T07:08:05.766Z,94303.84
2018-12-05T07:10:33.116Z,94309.78
2018-12-05T07:13:00.490Z,94299.63
2018-12-05T07:15:27.836Z,94306.38
2018-12-05T07:17:55.266Z,94305.98
2018-12-05T07:20:22.631Z,94302.59
2018-12-05T07:22:49.988Z,94312.72
2018-12-05T07:25:17.395Z,94305.54
2018-12-05T07:27:44.843Z,94306.80
2018-12-05T07:30:12.205Z,94316.11
2018-12-05T07:32:39.638Z,94313.56
2018-12-05T07:35:07.098Z,94320.77
2018-12-05T07:37:34.539Z,94318.63
2018-12-05T07:40:01.875Z,94322.44
2018-12-05T07:42:29.295Z,94314.83
2018-12-05T07:44:56.636Z,94307.64
2018-12-05T07:47:24.022Z,94314.82
2018-12-05T07:49:51.356Z,94308.91
2018-12-05T07:52:18.791Z,94309.31
2018-12-05T07:54:46.148Z,94306.75
2018-12-05T07:57:13.546Z,94299.14
2018-12-05T07:59:40.936Z,94298.70
2018-12-05T08:02:08.305Z,94300.39
2018-12-05T08:04:35.708Z,94299.11
2018-12-05T08:07:03.145Z,94300.80
2018-12-05T08:09:30.496Z,94294.46
2018-12-05T08:11:57.875Z,94291.51
2018-12-05T08:14:25.260Z,94285.58
2018-12-05T08:16:52.631Z,94280.05
2018-12-05T08:19:19.992Z,94285.13
2018-12-05T08:21:47.360Z,94296.97
2018-12-05T08:24:14.794Z,94296.98
2018-12-05T08:26:42.176Z,94294.44
2018-12-05T08:29:10.727Z,94291.50
2018-12-05T08:31:38.115Z,94296.59
2018-12-05T08:34:05.480Z,94290.22
2018-12-05T08:36:32.842Z,94304.59
2018-12-05T08:39:00.221Z,94298.69
2018-12-05T08:41:27.626Z,94294.00
2018-12-05T08:43:55.004Z,94304.59
2018-12-05T08:46:22.380Z,94309.67
2018-12-05T08:48:49.748Z,94311.79
2018-12-05T08:51:17.136Z,94307.14
2018-12-05T08:53:44.538Z,94313.07
2018-12-05T08:56:11.925Z,94316.87
2018-12-05T08:58:39.334Z,94316.01
2018-12-05T09:01:06.730Z,94319.83
2018-12-05T09:03:34.109Z,94317.23
2018-12-05T09:06:01.477Z,94317.67
2018-12-05T09:08:28.864Z,94322.73
2018-12-05T09:10:56.290Z,94326.55
2018-12-05T09:13:23.784Z,94325.27
2018-12-05T09:15:51.194Z,94337.09
2018-12-05T09:18:18.600Z,94333.27
2018-12-05T09:20:45.929Z,94329.03
2018-12-05T09:23:13.355Z,94320.96
2018-12-05T09:25:40.731Z,94326.47
2018-12-05T09:28:08.132Z,94332.38
2018-12-05T09:30:35.601Z,94321.74
2018-12-05T09:33:03.033Z,94328.12
2018-12-05T09:35:30.445Z,94324.24
2018-12-05T09:37:57.802Z,94321.72
2018-12-05T09:40:25.177Z,94326.34
2018-12-05T09:42:52.550Z,94313.61
2018-12-05T09:45:19.925Z,94313.58
2018-12-05T09:47:47.388Z,94306.70
2018-12-05T09:50:14.747Z,94307.92
2018-12-05T09:52:42.139Z,94298.97
2018-12-05T09:55:09.636Z,94292.58
2018-12-05T09:57:37.010Z,94293.39
2018-12-05T10:00:05.739Z,94291.28
2018-12-05T10:02:33.126Z,94286.59
2018-12-05T10:05:00.491Z,94283.22
2018-12-05T10:07:27.886Z,94283.70
2018-12-05T10:09:55.801Z,94288.78
2018-12-05T10:12:23.199Z,94281.58
2018-12-05T10:14:50.655Z,94280.70
2018-12-05T10:17:18.133Z,94276.37
2018-12-05T10:19:45.546Z,94283.50
2018-12-05T10:22:12.952Z,94275.28
2018-12-05T10:24:40.340Z,94263.83
2018-12-05T10:27:07.701Z,94268.95
2018-12-05T10:29:35.114Z,94272.62
2018-12-05T10:32:02.601Z,94267.94
2018-12-05T10:34:29.999Z,94266.98
2018-12-05T10:36:57.386Z,94266.95
2018-12-05T10:39:24.701Z,94266.58
2018-12-05T10:41:52.201Z,94263.85
2018-12-05T10:44:19.611Z,94262.92
2018-12-05T10:46:46.971Z,94262.11
2018-12-05T10:49:14.374Z,94258.29
2018-12-05T10:51:41.725Z,94253.09
2018-12-05T10:54:09.101Z,94244.91
2018-12-05T10:56:36.544Z,94244.14
2018-12-05T10:59:04.060Z,94234.34
2018-12-05T11:01:37.086Z,94230.97
2018-12-05T11:04:08.996Z,94225.43
2018-12-05T11:06:42.077Z,94219.86
2018-12-05T11:09:15.115Z,94214.58
2018-12-05T11:11:48.140Z,94214.50
2018-12-05T11:14:21.167Z,94215.02
2018-12-05T11:17:51.884Z,94208.52
2018-12-05T11:20:24.931Z,94204.38
2018-12-05T11:22:58.067Z,94205.38
2018-12-05T11:25:25.426Z,94199.44
2018-12-05T11:27:52.800Z,94204.68
2018-12-05T11:30:20.220Z,94207.30
2018-12-05T11:32:47.633Z,94209.77
2018-12-05T11:35:15.029Z,94211.12
2018-12-05T11:37:42.445Z,94210.61
2018-12-05T11:42:47.208Z,94197.36
2018-12-05T11:45:14.589Z,94194.81
2018-12-05T11:47:41.975Z,94202.42
2018-12-05T11:50:09.521Z,94194.73
2018-12-05T11:52:36.870Z,94193.06
2018-12-05T11:55:04.554Z,94192.66
2018-12-05T11:57:31.894Z,94189.12
2018-12-05T11:59:59.265Z,94191.19
2018-12-05T12:02:26.661Z,94186.98
2018-12-05T12:04:54.055Z,94182.76
2018-12-05T12:07:21.468Z,94184.47
2018-12-05T12:09:48.847Z,94176.86
2018-12-05T12:12:21.785Z,94179.45
2018-12-05T12:14:49.220Z,94179.05
2018-12-05T12:17:16.693Z,94169.64
2018-12-05T12:19:44.091Z,94154.23
2018-12-05T12:22:11.675Z,94154.50
2018-12-05T12:24:39.056Z,94153.98
2018-12-05T12:27:06.582Z,94149.75
2018-12-05T12:29:33.979Z,94144.26
2018-12-05T12:32:01.414Z,94142.23
2018-12-05T12:34:28.750Z,94150.61
2018-12-05T12:36:56.271Z,94145.71
2018-12-05T12:39:23.659Z,94146.44
2018-12-05T12:41:51.046Z,94144.40
2018-12-05T12:44:18.429Z,94144.88
2018-12-05T12:46:45.911Z,94132.58
2018-12-05T12:49:13.345Z,94127.89
2018-12-05T12:51:40.755Z,94128.11
2018-12-05T12:54:08.331Z,94120.70
2018-12-05T12:56:35.765Z,94111.80
2018-12-05T12:59:03.255Z,94108.48
2018-12-05T13:01:30.674Z,94109.36
2018-12-05T13:03:58.086Z,94101.40
2018-12-05T13:06:25.480Z,94103.95
2018-12-05T13:08:52.906Z,94104.42
2018-12-05T13:11:20.326Z,94094.99
2018-12-05T13:13:47.726Z,94097.54
2018-12-05T13:16:15.095Z,94097.06
2018-12-05T13:18:42.553Z,94094.11
2018-12-05T13:21:09.985Z,94089.46
2018-12-05T13:23:37.445Z,94093.83
2018-12-05T13:26:04.885Z,94087.61
2018-12-05T13:28:32.275Z,94079.61
2018-12-05T13:30:59.637Z,94074.62
2018-12-05T13:33:27.196Z,94068.70
2018-12-05T13:35:54.686Z,94067.36
2018-12-05T13:38:22.142Z,94063.20
2018-12-05T13:40:49.680Z,94060.23
2018-12-05T13:43:17.088Z,94057.28
2018-12-05T13:45:44.493Z,94054.70
2018-12-05T13:48:11.863Z,94056.77
2018-12-05T13:50:39.283Z,94051.28
2018-12-05T13:53:06.703Z,94044.59
2018-12-05T13:55:34.193Z,94045.46
2018-12-05T13:58:01.580Z,94040.34
2018-12-05T14:00:29.079Z,94042.12
2018-12-05T14:02:56.468Z,94046.44
2018-12-05T14:05:23.875Z,94042.70
2018-12-05T14:07:51.263Z,94042.80
2018-12-05T14:10:22.097Z,94048.35
2018-12-05T14:12:49.515Z,94046.27
2018-12-05T14:15:16.934Z,94050.16
2018-12-05T14:17:44.307Z,94048.85
2018-12-05T14:20:11.753Z,94052.36
2018-12-05T14:22:39.178Z,94051.52
2018-12-05T14:25:07.337Z,94052.30
2018-12-05T14:27:35.871Z,94058.25
2018-12-05T14:30:03.679Z,94050.25
2018-12-05T14:32:31.086Z,94050.25
2018-12-05T14:34:58.467Z,94038.44
2018-12-05T14:37:27.902Z,94039.39
2018-12-05T14:39:55.294Z,94045.69
2018-12-05T14:42:22.709Z,94048.70
2018-12-05T14:44:50.111Z,94049.91
2018-12-05T14:47:18.511Z,94048.75
2018-12-05T14:49:45.875Z,94050.92
2018-12-05T14:52:13.284Z,94055.54
2018-12-05T14:54:40.677Z,94053.44
2018-12-05T14:57:08.147Z,94044.56
2018-12-05T14:59:35.493Z,94045.05
2018-12-05T15:02:02.929Z,94040.84
2018-12-05T15:04:35.506Z,94029.05
2018-12-05T15:07:03.151Z,94029.50
2018-12-05T15:09:30.527Z,94032.48
2018-12-05T15:11:57.923Z,94025.29
2018-12-05T15:14:25.502Z,94025.64
2018-12-05T15:16:52.898Z,94018.83
2018-12-05T15:19:25.869Z,94014.62
2018-12-05T15:21:56.971Z,94013.42
2018-12-05T15:24:24.349Z,94011.72
2018-12-05T15:27:03.727Z,94005.39
2018-12-05T15:29:31.199Z,94010.96
2018-12-05T15:31:58.634Z,94008.45
2018-12-05T15:34:26.138Z,94003.63
2018-12-05T15:36:53.553Z,93997.39
2018-12-05T15:39:21.039Z,93994.44
2018-12-05T15:41:48.447Z,93983.36
2018-12-05T15:44:15.856Z,93973.16
2018-12-05T15:46:43.213Z,93974.52
2018-12-05T15:49:10.636Z,93968.56
2018-12-05T15:51:38.065Z,93969.52
2018-12-05T15:54:05.645Z,93969.98
2018-12-05T15:56:33.063Z,93979.22
2018-12-05T15:59:00.559Z,93974.48
2018-12-05T16:01:27.948Z,93962.22
2018-12-05T16:03:55.397Z,93963.95
2018-12-05T16:06:22.871Z,93967.41
2018-12-05T16:08:50.267Z,93964.01
2018-12-05T16:11:17.660Z,93964.90
2018-12-05T16:13:45.102Z,93954.70
2018-12-05T16:16:20.039Z,93947.55
2018-12-05T16:18:47.463Z,93945.03
2018-12-05T16:21:14.863Z,93945.03
2018-12-05T16:23:42.237Z,93948.47
2018-12-05T16:26:10.723Z,93945.03
2018-12-05T16:28:38.637Z,93941.66
2018-12-05T16:31:06.059Z,93937.81
2018-12-05T16:33:33.467Z,93946.59
2018-12-05T16:36:00.868Z,93949.10
2018-12-05T16:38:28.258Z,93955.48
2018-12-05T16:40:55.666Z,93950.06
2018-12-05T16:43:23.069Z,93954.27
2018-12-05T16:45:50.485Z,93953.03
2018-12-05T16:48:17.879Z,93958.95
2018-12-05T16:50:45.319Z,93954.36
2018-12-05T16:53:12.731Z,93946.30
2018-12-05T16:55:40.163Z,93943.73
2018-12-05T16:58:07.588Z,93951.33
2018-12-05T17:00:34.958Z,93950.84
2018-12-05T17:03:02.393Z,93943.59
2018-12-05T17:05:29.774Z,93945.70
2018-12-05T17:07:57.198Z,93941.02
2018-12-05T17:10:24.584Z,93925.86
2018-12-05T17:12:52.005Z,93922.52
2018-12-05T17:15:19.388Z,93914.45
2018-12-05T17:17:46.819Z,93919.08
2018-12-05T17:20:14.248Z,93922.45
2018-12-05T17:22:41.663Z,93920.41
2018-12-05T17:25:09.239Z,93919.51
2018-12-05T17:27:36.656Z,93914.92
2018-12-05T17:30:04.728Z,93910.12
2018-12-05T17:32:32.105Z,93908.88
2018-12-05T17:34:59.553Z,93909.72
2018-12-05T17:37:27.045Z,93906.67
2018-12-05T17:39:54.502Z,93910.45
2018-12-05T17:42:22.103Z,93907.52
2018-12-05T17:44:49.718Z,93897.38
2018-12-05T17:47:17.110Z,93893.60
2018-12-05T17:49:44.541Z,93894.00
2018-12-05T17:52:11.944Z,93893.53
2018-12-05T17:54:39.379Z,93888.12
2018-12-05T17:57:06.883Z,93889.29
2018-12-05T17:59:34.366Z,93879.92
2018-12-05T18:02:01.805Z,93876.01
2018-12-05T18:04:29.238Z,93876.15
2018-12-05T18:06:56.752Z,93875.74
2018-12-05T18:09:24.178Z,93875.71
2018-12-05T18:11:51.601Z,93869.76
2018-12-05T18:14:19.261Z,93865.55
2018-12-05T18:16:46.695Z,93860.42
2018-12-05T18:19:14.105Z,93858.42
2018-12-05T18:21:41.705Z,93849.16
2018-12-05T18:24:09.373Z,93841.98
2018-12-05T18:26:36.898Z,93839.50
2018-12-05T18:29:04.388Z,93837.47
2018-12-05T18:31:31.947Z,93844.28
2018-12-05T18:33:59.365Z,93836.23
2018-12-05T18:36:26.805Z,93836.27
2018-12-05T18:38:54.238Z,93843.42
2018-12-05T18:41:21.680Z,93835.39
2018-12-05T18:43:49.116Z,93837.47
2018-12-05T18:46:16.522Z,93841.21
2018-12-05T18:48:43.960Z,93838.70
2018-12-05T18:51:11.395Z,93839.07
2018-12-05T18:53:38.831Z,93837.00
2018-12-05T18:56:06.309Z,93837.40
2018-12-05T18:58:33.745Z,93838.56
2018-12-05T19:01:01.198Z,93838.16
2018-12-05T19:03:28.589Z,93842.45
2018-12-05T19:05:55.948Z,93828.50
2018-12-05T19:08:23.359Z,93821.72
2018-12-05T19:10:50.808Z,93822.19
2018-12-05T19:13:18.254Z,93814.50
2018-12-05T19:15:45.658Z,93816.60
2018-12-05T19:18:13.113Z,93807.31
2018-12-05T19:20:40.485Z,93807.31
2018-12-05T19:23:07.885Z,93805.20
2018-12-05T19:25:35.323Z,93806.11
2018-12-05T19:28:02.812Z,93799.65
2018-12-05T19:30:30.205Z,93805.09
2018-12-05T19:32:57.669Z,93798.34
2018-12-05T19:35:25.060Z,93805.97
2018-12-05T19:37:52.500Z,93806.80
2018-12-05T19:40:20.104Z,93809.23
2018-12-05T19:42:47.549Z,93807.89
2018-12-05T19:45:14.980Z,93815.88
2018-12-05T19:47:42.396Z,93803.16
2018-12-05T19:50:09.943Z,93801.17
2018-12-05T19:52:37.354Z,93791.05
2018-12-05T19:55:04.939Z,93799.14
2018-12-05T19:57:32.377Z,93794.83
2018-12-05T19:59:59.823Z,93787.63
2018-12-05T20:02:27.225Z,93781.64
2018-12-05T20:04:54.643Z,93780.08
2018-12-05T20:07:22.078Z,93770.39
2018-12-05T20:09:49.539Z,93771.88
2018-12-05T20:12:16.989Z,93774.41
2018-12-05T20:14:44.424Z,93769.41
2018-12-05T20:17:11.840Z,93763.56
2018-12-05T20:19:39.336Z,93751.73
2018-12-05T20:22:06.802Z,93747.48
2018-12-05T20:24:34.251Z,93749.23
2018-12-05T20:27:04.904Z,93752.09
2018-12-05T20:29:32.489Z,93752.97
2018-12-05T20:31:59.920Z,93739.86
2018-12-05T20:34:27.324Z,93733.88
2018-12-05T20:36:59.888Z,93735.84
2018-12-05T20:39:27.285Z,93731.63
2018-12-05T20:42:00.870Z,93726.11
2018-12-05T20:44:28.294Z,93731.59
2018-12-05T20:47:05.298Z,93734.53
2018-12-05T20:49:32.724Z,93732.03
2018-12-05T20:52:00.134Z,93723.97
2018-12-05T20:54:27.533Z,93721.83
2018-12-05T20:57:04.053Z,93713.80
2018-12-05T20:59:31.475Z,93716.78
2018-12-05T21:01:58.951Z,93719.37
2018-12-05T21:04:30.084Z,93710.87
2018-12-05T21:07:05.149Z,93709.08
2018-12-05T21:09:38.797Z,93709.07
2018-12-05T21:12:06.231Z,93705.65
2018-12-05T21:14:33.670Z,93704.42
2018-12-05T21:17:01.058Z,93700.66
2018-12-05T21:19:28.464Z,93696.00
2018-12-05T21:21:55.850Z,93694.70
2018-12-05T21:24:23.264Z,93691.77
2018-12-05T21:26:50.661Z,93695.13
2018-12-05T21:29:18.076Z,93684.93
2018-12-05T21:31:45.461Z,93685.84
2018-12-05T21:34:12.872Z,93683.66
2018-12-05T21:36:45.600Z,93682.77
2018-12-05T21:39:13.023Z,93672.66
2018-12-05T21:41:40.439Z,93680.28
2018-12-05T21:44:07.889Z,93677.34
2018-12-05T21:46:35.391Z,93692.94
2018-12-05T21:49:02.937Z,93707.36
2018-12-05T21:51:30.320Z,93716.66
2018-12-05T21:53:57.783Z,93713.23
2018-12-05T21:56:25.361Z,93717.36
2018-12-05T21:58:52.752Z,93717.88
2018-12-05T22:01:20.216Z,93721.74
2018-12-05T22:03:47.584Z,93724.28
2018-12-05T22:06:22.853Z,93719.63
2018-12-05T22:08:52.011Z,93718.72
2018-12-05T22:11:22.801Z,93717.22
2018-12-05T22:13:50.164Z,93722.39
2018-12-05T22:16:25.290Z,93718.93
2018-12-05T22:18:52.733Z,93709.33
2018-12-05T22:21:20.097Z,93701.79
2018-12-05T22:23:47.620Z,93703.10
2018-12-05T22:26:19.950Z,93709.50
2018-12-05T22:28:47.350Z,93705.73
2018-12-05T22:31:14.777Z,93707.91
2018-12-05T22:33:42.417Z,93699.37
2018-12-05T22:36:10.520Z,93692.98
2018-12-05T22:38:37.895Z,93695.87
2018-12-05T22:41:08.987Z,93687.33
2018-12-05T22:43:36.585Z,93692.42
2018-12-05T22:46:04.061Z,93695.39
2018-12-05T22:48:33.121Z,93697.02
2018-12-05T22:51:00.600Z,93696.14
2018-12-05T22:53:27.979Z,93696.63
2018-12-05T22:55:55.390Z,93696.53
2018-12-05T22:58:22.779Z,93693.59
2018-12-05T23:00:53.208Z,93702.02
2018-12-05T23:03:20.604Z,93701.62
2018-12-05T23:05:47.999Z,93697.33
2018-12-05T23:08:19.419Z,93696.06
2018-12-05T23:10:46.774Z,93684.57
2018-12-05T23:13:14.223Z,93688.73
2018-12-05T23:15:41.588Z,93690.05
2018-12-05T23:18:08.994Z,93687.86
2018-12-05T23:20:36.336Z,93690.84
2018-12-05T23:23:03.735Z,93691.63
2018-12-05T23:25:31.120Z,93685.66
2018-12-05T23:28:08.208Z,93691.14
2018-12-05T23:30:35.730Z,93687.77
2018-12-05T23:33:03.120Z,93688.64
2018-12-05T23:35:30.474Z,93694.96
2018-12-05T23:37:58.927Z,93695.31
2018-12-05T23:40:26.327Z,93701.27
2018-12-05T23:42:53.688Z,93694.52
2018-12-05T23:45:21.100Z,93702.14
2018-12-05T23:47:48.471Z,93695.44
2018-12-05T23:50:15.866Z,93695.48
2018-12-05T23:52:43.219Z,93701.84
2018-12-05T23:55:10.616Z,93721.73
2018-12-05T23:57:38.018Z,93736.47
